createdAt,value
2023-04-16T00:01:47.955Z,4.50
2023-04-16T00:04:15.127Z,4.95
2023-04-16T00:06:42.590Z,4.43
2023-04-16T00:09:10.579Z,3.63
2023-04-16T00:11:37.918Z,5.10
2023-04-16T00:14:04.994Z,5.57
2023-04-16T00:16:32.015Z,3.83
2023-04-16T00:18:59.062Z,4.97
2023-04-16T00:21:26.699Z,4.03
2023-04-16T00:23:53.769Z,4.57
2023-04-16T00:26:20.596Z,4.67
2023-04-16T00:28:50.696Z,4.50
2023-04-16T00:31:17.772Z,4.28
2023-04-16T00:33:44.704Z,3.50
2023-04-16T00:36:11.610Z,4.03
2023-04-16T00:38:38.517Z,4.10
2023-04-16T00:41:05.458Z,3.55
2023-04-16T00:43:32.369Z,4.13
2023-04-16T00:45:59.693Z,4.43
2023-04-16T00:48:32.099Z,3.97
2023-04-16T00:51:01.200Z,3.53
2023-04-16T00:53:28.650Z,3.05
2023-04-16T00:55:57.243Z,3.45
2023-04-16T00:58:25.689Z,2.90
2023-04-16T01:00:52.688Z,3.35
2023-04-16T01:03:24.035Z,3.53
2023-04-16T01:05:51.557Z,3.10
2023-04-16T01:08:20.693Z,3.00
2023-04-16T01:10:47.769Z,3.50
2023-04-16T01:13:14.905Z,3.10
2023-04-16T01:15:41.825Z,3.07
2023-04-16T01:18:19.572Z,3.42
2023-04-16T01:20:48.046Z,3.35
2023-04-16T01:23:15.048Z,4.07
2023-04-16T01:25:42.097Z,3.65
2023-04-16T01:28:09.075Z,3.93
2023-04-16T01:30:36.044Z,3.47
2023-04-16T01:33:21.800Z,3.50
2023-04-16T01:35:48.715Z,4.22
2023-04-16T01:38:16.517Z,3.08
2023-04-16T01:40:43.488Z,4.47
2023-04-16T01:43:10.462Z,3.10
2023-04-16T01:45:37.675Z,4.15
2023-04-16T01:48:05.413Z,4.00
2023-04-16T01:50:32.464Z,5.30
2023-04-16T01:52:59.344Z,5.03
2023-04-16T01:55:27.031Z,4.80
2023-04-16T01:57:54.252Z,3.97
2023-04-16T02:00:25.339Z,5.28
2023-04-16T02:02:53.519Z,5.57
2023-04-16T02:05:26.295Z,6.00
2023-04-16T02:07:53.162Z,4.90
2023-04-16T02:10:20.800Z,5.88
2023-04-16T02:12:47.844Z,5.22
2023-04-16T02:15:16.419Z,5.03
2023-04-16T02:17:43.690Z,5.70
2023-04-16T02:20:11.792Z,4.53
2023-04-16T02:22:46.110Z,5.50
2023-04-16T02:25:16.540Z,4.35
2023-04-16T02:27:44.121Z,5.68
2023-04-16T02:30:25.674Z,5.30
2023-04-16T02:32:54.382Z,5.15
2023-04-16T02:35:21.610Z,4.43
2023-04-16T02:37:49.514Z,5.65
2023-04-16T02:40:16.524Z,5.40
2023-04-16T02:42:43.389Z,4.97
2023-04-16T02:45:11.715Z,4.80
2023-04-16T02:47:38.569Z,5.20
2023-04-16T02:50:06.502Z,6.13
2023-04-16T02:52:33.693Z,5.80
2023-04-16T02:55:00.898Z,5.40
2023-04-16T02:57:27.756Z,5.03
2023-04-16T02:59:54.667Z,5.13
2023-04-16T03:02:21.720Z,5.35
2023-04-16T03:04:48.749Z,5.90
2023-04-16T03:07:16.063Z,5.40
2023-04-16T03:09:43.226Z,5.75
2023-04-16T03:12:10.444Z,5.50
2023-04-16T03:14:37.394Z,4.60
2023-04-16T03:17:04.190Z,5.72
2023-04-16T03:19:31.062Z,5.27
2023-04-16T03:21:58.224Z,5.38
2023-04-16T03:24:25.067Z,5.07
2023-04-16T03:26:51.940Z,4.53
2023-04-16T03:29:21.329Z,6.47
2023-04-16T03:31:50.543Z,6.37
2023-04-16T03:34:17.967Z,6.43
2023-04-16T03:36:46.040Z,6.95
2023-04-16T03:39:13.392Z,6.32
2023-04-16T03:41:41.017Z,5.05
2023-04-16T03:44:08.125Z,6.43
2023-04-16T03:46:35.644Z,5.85
2023-04-16T03:49:03.726Z,5.15
2023-04-16T03:51:31.003Z,7.45
2023-04-16T03:53:58.392Z,7.00
2023-04-16T03:56:26.251Z,8.13
2023-04-16T03:58:54.205Z,5.50
2023-04-16T04:01:21.130Z,7.70
2023-04-16T04:03:48.452Z,8.57
2023-04-16T04:06:15.924Z,8.82
2023-04-16T04:08:43.382Z,8.30
2023-04-16T04:11:10.834Z,8.02
2023-04-16T04:13:41.090Z,8.80
2023-04-16T04:16:10.326Z,9.40
2023-04-16T04:18:37.228Z,6.60
2023-04-16T04:21:09.998Z,9.00
2023-04-16T04:23:37.179Z,11.20
2023-04-16T04:26:07.488Z,7.93
2023-04-16T04:28:36.731Z,9.55
2023-04-16T04:31:07.923Z,8.57
2023-04-16T04:33:35.249Z,7.80
2023-04-16T04:36:02.510Z,7.90
2023-04-16T04:38:31.350Z,9.27
2023-04-16T04:40:59.055Z,8.45
2023-04-16T04:43:28.449Z,9.23
2023-04-16T04:45:55.774Z,9.77
2023-04-16T04:48:26.729Z,10.75
2023-04-16T04:50:54.861Z,8.55
2023-04-16T04:53:21.980Z,9.68
2023-04-16T04:55:52.269Z,9.00
2023-04-16T04:58:21.331Z,9.47
2023-04-16T05:00:48.339Z,9.77
2023-04-16T05:03:21.499Z,11.05
2023-04-16T05:05:48.859Z,7.82
2023-04-16T05:08:16.116Z,8.27
2023-04-16T05:10:42.893Z,9.63
2023-04-16T05:13:09.981Z,9.88
2023-04-16T05:15:37.816Z,9.20
2023-04-16T05:18:06.179Z,10.40
2023-04-16T05:20:33.281Z,9.73
2023-04-16T05:23:00.194Z,9.70
2023-04-16T05:25:27.030Z,10.10
2023-04-16T05:27:54.235Z,10.48
2023-04-16T05:30:21.319Z,13.27
2023-04-16T05:32:48.288Z,11.52
2023-04-16T05:35:17.341Z,11.83
2023-04-16T05:37:44.717Z,11.93
2023-04-16T05:40:13.499Z,9.60
2023-04-16T05:42:40.465Z,12.80
2023-04-16T05:45:08.071Z,14.45
2023-04-16T05:47:35.328Z,12.90
2023-04-16T05:50:02.197Z,13.88
2023-04-16T05:52:29.451Z,12.90
2023-04-16T05:54:56.516Z,11.40
2023-04-16T05:57:23.478Z,12.38
2023-04-16T05:59:50.703Z,12.77
2023-04-16T06:02:20.928Z,10.52
2023-04-16T06:04:51.182Z,9.40
2023-04-16T06:07:18.057Z,12.25
2023-04-16T06:09:49.656Z,9.82
2023-04-16T06:12:16.599Z,11.50
2023-04-16T06:14:43.906Z,9.80
2023-04-16T06:17:13.853Z,12.02
2023-04-16T06:19:41.075Z,10.75
2023-04-16T06:22:07.979Z,11.57
2023-04-16T06:24:35.031Z,10.57
2023-04-16T06:27:02.830Z,11.55
2023-04-16T06:29:40.611Z,11.93
2023-04-16T06:32:08.608Z,9.27
2023-04-16T06:34:35.675Z,11.10
2023-04-16T06:37:02.620Z,11.97
2023-04-16T06:39:29.404Z,11.85
2023-04-16T06:41:56.537Z,12.52
2023-04-16T06:44:23.924Z,11.93
2023-04-16T06:46:51.277Z,10.57
2023-04-16T06:49:18.136Z,11.07
2023-04-16T06:51:45.393Z,11.52
2023-04-16T06:54:12.579Z,12.32
2023-04-16T06:56:39.589Z,11.77
2023-04-16T06:59:09.939Z,10.60
2023-04-16T07:01:37.065Z,11.57
2023-04-16T07:04:04.457Z,9.88
2023-04-16T07:06:34.873Z,10.95
2023-04-16T07:09:02.383Z,11.23
2023-04-16T07:11:29.294Z,11.07
2023-04-16T07:13:56.880Z,11.83
2023-04-16T07:16:24.041Z,11.23
2023-04-16T07:18:51.023Z,8.25
2023-04-16T07:21:18.750Z,8.70
2023-04-16T07:23:45.952Z,10.43
2023-04-16T07:26:12.846Z,11.47
2023-04-16T07:28:39.857Z,11.23
2023-04-16T07:31:09.963Z,10.20
2023-04-16T07:33:36.946Z,10.45
2023-04-16T07:36:03.956Z,11.98
2023-04-16T07:38:31.166Z,11.50
2023-04-16T07:40:58.296Z,11.32
2023-04-16T07:43:25.367Z,10.70
2023-04-16T07:45:52.530Z,11.80
2023-04-16T07:48:19.422Z,9.70
2023-04-16T07:50:46.229Z,11.30
2023-04-16T07:53:13.047Z,11.82
2023-04-16T07:55:39.832Z,9.77
2023-04-16T07:58:10.322Z,11.30
2023-04-16T08:00:37.711Z,9.73
2023-04-16T08:03:05.109Z,9.73
2023-04-16T08:05:32.242Z,9.65
2023-04-16T08:07:59.076Z,10.85
2023-04-16T08:10:26.072Z,8.85
2023-04-16T08:12:52.896Z,9.30
2023-04-16T08:15:19.998Z,10.37
2023-04-16T08:17:46.867Z,8.85
2023-04-16T08:20:16.923Z,10.20
2023-04-16T08:22:46.350Z,8.30
2023-04-16T08:25:13.216Z,8.80
2023-04-16T08:27:40.665Z,10.37
2023-04-16T08:30:13.696Z,9.57
2023-04-16T08:32:40.730Z,10.60
2023-04-16T08:35:11.142Z,11.02
2023-04-16T08:37:38.746Z,10.45
2023-04-16T08:40:06.519Z,11.40
2023-04-16T08:42:55.891Z,10.27
2023-04-16T08:45:23.273Z,10.02
2023-04-16T08:47:52.183Z,9.90
2023-04-16T08:50:24.180Z,9.20
2023-04-16T08:52:59.523Z,10.10
2023-04-16T08:55:50.411Z,10.13
2023-04-16T08:58:23.046Z,9.55
2023-04-16T09:00:50.502Z,9.35
2023-04-16T09:03:20.036Z,9.88
2023-04-16T09:05:47.241Z,9.43
2023-04-16T09:08:14.280Z,10.18
2023-04-16T09:10:41.292Z,8.93
2023-04-16T09:13:11.648Z,10.10
2023-04-16T09:15:39.395Z,10.02
2023-04-16T09:18:06.333Z,8.87
2023-04-16T09:20:33.189Z,9.13
2023-04-16T09:22:59.966Z,8.50
2023-04-16T09:25:34.788Z,9.68
2023-04-16T09:28:04.169Z,10.10
2023-04-16T09:30:31.398Z,10.30
2023-04-16T09:33:23.201Z,9.45
2023-04-16T09:35:52.240Z,7.50
2023-04-16T09:38:20.531Z,10.10
2023-04-16T09:40:47.715Z,10.30
2023-04-16T09:43:16.721Z,9.03
2023-04-16T09:45:54.901Z,9.88
2023-04-16T09:48:30.269Z,9.90
2023-04-16T09:50:58.306Z,9.93
2023-04-16T09:53:30.257Z,9.65
2023-04-16T09:56:06.365Z,9.80
2023-04-16T09:58:39.395Z,9.40
2023-04-16T10:01:09.710Z,8.35
2023-04-16T10:03:39.056Z,8.77
2023-04-16T10:06:14.304Z,6.72
2023-04-16T10:08:58.456Z,8.40
2023-04-16T10:11:28.306Z,8.73
2023-04-16T10:13:55.089Z,8.68
2023-04-16T10:16:23.211Z,8.88
2023-04-16T10:18:50.594Z,9.02
2023-04-16T10:21:17.542Z,8.83
2023-04-16T10:23:45.056Z,9.25
2023-04-16T10:26:12.001Z,7.45
2023-04-16T10:28:44.455Z,9.13
2023-04-16T10:31:14.976Z,7.68
2023-04-16T10:33:42.786Z,9.07
2023-04-16T10:36:14.755Z,7.55
2023-04-16T10:38:46.378Z,8.40
2023-04-16T10:41:16.574Z,8.05
2023-04-16T10:43:48.471Z,7.93
2023-04-16T10:46:20.955Z,7.23
2023-04-16T10:48:50.579Z,7.40
2023-04-16T10:51:35.754Z,7.57
2023-04-16T10:54:22.332Z,8.35
2023-04-16T10:56:50.712Z,8.23
2023-04-16T10:59:22.199Z,8.40
2023-04-16T11:01:51.957Z,9.75
2023-04-16T11:04:22.083Z,10.23
2023-04-16T11:07:15.097Z,10.07
2023-04-16T11:10:01.209Z,10.07
2023-04-16T11:12:35.563Z,10.37
2023-04-16T11:15:04.864Z,10.85
2023-04-16T11:17:39.349Z,11.05
2023-04-16T11:20:13.592Z,11.00
2023-04-16T11:22:57.079Z,9.80
2023-04-16T11:25:34.093Z,11.53
2023-04-16T11:28:03.162Z,11.57
2023-04-16T11:30:34.037Z,11.20
2023-04-16T11:33:17.347Z,10.73
2023-04-16T11:35:47.596Z,10.68
2023-04-16T11:38:19.181Z,11.60
2023-04-16T11:40:47.913Z,10.50
2023-04-16T11:43:16.708Z,10.45
2023-04-16T11:45:56.959Z,10.43
2023-04-16T11:48:24.792Z,11.02
2023-04-16T11:50:58.528Z,10.27
2023-04-16T11:53:25.685Z,12.25
2023-04-16T11:55:52.734Z,10.43
2023-04-16T11:58:23.521Z,10.75
2023-04-16T12:00:53.423Z,10.55
2023-04-16T12:03:43.501Z,10.33
2023-04-16T12:06:10.842Z,10.90
2023-04-16T12:08:37.896Z,10.80
2023-04-16T12:11:04.910Z,11.23
2023-04-16T12:13:40.338Z,9.05
2023-04-16T12:16:19.552Z,10.90
2023-04-16T12:19:09.296Z,11.90
2023-04-16T12:21:47.969Z,10.75
2023-04-16T12:24:21.383Z,12.23
2023-04-16T12:26:56.933Z,12.30
2023-04-16T12:29:41.563Z,12.33
2023-04-16T12:32:40.016Z,11.20
2023-04-16T12:35:25.127Z,10.73
2023-04-16T12:38:02.434Z,12.65
2023-04-16T12:40:33.723Z,12.43
2023-04-16T12:43:32.656Z,11.57
2023-04-16T12:46:08.026Z,11.95
2023-04-16T12:48:39.875Z,11.02
2023-04-16T12:51:23.405Z,13.02
2023-04-16T12:54:18.217Z,8.75
2023-04-16T12:56:45.557Z,11.90
2023-04-16T12:59:17.784Z,12.68
2023-04-16T13:01:44.698Z,11.45
2023-04-16T13:04:12.058Z,12.43
2023-04-16T13:06:39.963Z,12.57
2023-04-16T13:09:07.428Z,12.63
2023-04-16T13:11:34.389Z,10.73
2023-04-16T13:14:01.222Z,12.13
2023-04-16T13:16:28.072Z,11.82
2023-04-16T13:18:55.276Z,12.13
2023-04-16T13:21:23.872Z,12.80
2023-04-16T13:23:50.742Z,12.70
2023-04-16T13:26:18.426Z,10.02
2023-04-16T13:28:45.503Z,13.02
2023-04-16T13:31:12.406Z,12.13
2023-04-16T13:33:39.353Z,12.43
2023-04-16T13:36:09.280Z,12.20
2023-04-16T13:38:36.182Z,12.07
2023-04-16T13:41:03.026Z,12.13
2023-04-16T13:43:29.942Z,11.23
2023-04-16T13:45:57.009Z,12.57
2023-04-16T13:48:23.813Z,11.57
2023-04-16T13:50:50.974Z,12.93
2023-04-16T13:53:18.056Z,11.73
2023-04-16T13:55:45.017Z,13.75
2023-04-16T13:58:12.181Z,12.43
2023-04-16T14:00:39.052Z,10.43
2023-04-16T14:03:06.954Z,12.50
2023-04-16T14:05:33.906Z,12.57
2023-04-16T14:08:00.909Z,13.02
2023-04-16T14:10:27.823Z,13.13
2023-04-16T14:12:54.609Z,12.68
2023-04-16T14:15:21.499Z,13.02
2023-04-16T14:17:48.349Z,14.05
2023-04-16T14:20:15.770Z,13.30
2023-04-16T14:22:44.020Z,13.47
2023-04-16T14:25:11.159Z,13.02
2023-04-16T14:27:38.163Z,13.40
2023-04-16T14:30:06.238Z,13.68
2023-04-16T14:32:33.235Z,12.40
2023-04-16T14:35:00.132Z,13.03
2023-04-16T14:37:27.215Z,13.45
2023-04-16T14:39:54.120Z,13.93
2023-04-16T14:42:26.248Z,12.98
2023-04-16T14:44:53.143Z,13.27
2023-04-16T14:47:22.621Z,12.70
2023-04-16T14:49:49.476Z,12.05
2023-04-16T14:52:16.670Z,13.70
2023-04-16T14:54:43.530Z,12.95
2023-04-16T14:57:10.593Z,13.05
2023-04-16T14:59:37.644Z,13.73
2023-04-16T15:02:04.953Z,14.70
2023-04-16T15:04:32.179Z,13.75
2023-04-16T15:07:00.032Z,13.48
2023-04-16T15:09:30.010Z,13.48
2023-04-16T15:11:56.951Z,13.47
2023-04-16T15:14:23.966Z,14.90
2023-04-16T15:16:53.358Z,13.52
2023-04-16T15:19:21.484Z,14.48
2023-04-16T15:21:51.224Z,14.73
2023-04-16T15:24:18.167Z,14.27
2023-04-16T15:26:45.773Z,14.15
2023-04-16T15:29:12.780Z,13.38
2023-04-16T15:31:40.342Z,13.80
2023-04-16T15:34:07.774Z,13.25
2023-04-16T15:36:34.643Z,13.30
2023-04-16T15:39:01.459Z,12.68
2023-04-16T15:41:30.072Z,13.90
2023-04-16T15:43:56.922Z,12.85
2023-04-16T15:46:24.747Z,13.05
2023-04-16T15:48:51.681Z,14.63
2023-04-16T15:51:18.627Z,13.30
2023-04-16T15:53:45.679Z,13.32
2023-04-16T15:56:12.594Z,14.27
2023-04-16T15:58:39.796Z,14.80
2023-04-16T16:01:06.875Z,13.27
2023-04-16T16:03:36.006Z,14.70
2023-04-16T16:06:04.743Z,11.88
2023-04-16T16:08:35.412Z,12.30
2023-04-16T16:11:02.815Z,15.70
2023-04-16T16:13:29.739Z,14.93
2023-04-16T16:15:56.824Z,16.42
2023-04-16T16:18:26.076Z,17.98
2023-04-16T16:20:57.132Z,16.08
2023-04-16T16:23:25.501Z,15.55
2023-04-16T16:25:52.550Z,15.57
2023-04-16T16:28:20.508Z,15.57
2023-04-16T16:30:47.808Z,17.05
2023-04-16T16:33:15.005Z,19.20
2023-04-16T16:35:41.952Z,20.60
2023-04-16T16:38:08.862Z,14.97
2023-04-16T16:40:36.010Z,14.52
2023-04-16T16:43:02.987Z,15.48
2023-04-16T16:45:30.701Z,15.05
2023-04-16T16:47:59.173Z,16.75
2023-04-16T16:50:29.632Z,15.53
2023-04-16T16:52:59.059Z,12.48
2023-04-16T16:55:29.806Z,16.05
2023-04-16T16:57:56.875Z,15.75
2023-04-16T17:00:24.008Z,14.80
2023-04-16T17:02:52.122Z,16.80
2023-04-16T17:05:19.984Z,13.77
2023-04-16T17:07:47.034Z,15.52
2023-04-16T17:10:20.211Z,15.13
2023-04-16T17:12:48.653Z,14.98
2023-04-16T17:15:18.508Z,16.13
2023-04-16T17:17:52.135Z,15.18
2023-04-16T17:20:22.459Z,16.92
2023-04-16T17:22:56.957Z,17.02
2023-04-16T17:25:30.754Z,15.07
2023-04-16T17:28:01.811Z,14.67
2023-04-16T17:30:32.148Z,14.52
2023-04-16T17:32:59.540Z,17.48
2023-04-16T17:35:29.486Z,19.27
2023-04-16T17:38:15.580Z,20.27
2023-04-16T17:40:42.842Z,18.03
2023-04-16T17:43:10.114Z,16.70
2023-04-16T17:45:37.838Z,16.98
2023-04-16T17:48:05.360Z,15.32
2023-04-16T17:50:32.599Z,14.52
2023-04-16T17:53:04.247Z,15.43
2023-04-16T17:55:31.826Z,15.57
2023-04-16T17:58:00.500Z,16.15
2023-04-16T18:00:27.895Z,18.20
2023-04-16T18:02:59.589Z,17.95
2023-04-16T18:05:29.145Z,17.90
2023-04-16T18:07:56.867Z,28.90
2023-04-16T18:10:24.078Z,20.05
2023-04-16T18:12:51.588Z,16.67
2023-04-16T18:15:18.997Z,17.10
2023-04-16T18:17:46.996Z,18.10
2023-04-16T18:20:19.687Z,17.75
2023-04-16T18:22:47.149Z,15.98
2023-04-16T18:25:21.543Z,17.05
2023-04-16T18:27:59.104Z,17.88
2023-04-16T18:30:26.994Z,18.03
2023-04-16T18:33:25.434Z,17.27
2023-04-16T18:35:42.227Z,17.38
2023-04-16T18:38:09.515Z,18.23
2023-04-16T18:40:37.513Z,18.30
2023-04-16T18:43:05.153Z,18.83
2023-04-16T18:45:34.302Z,17.23
2023-04-16T18:48:03.785Z,18.65
2023-04-16T18:50:32.092Z,17.50
2023-04-16T18:52:59.160Z,19.25
2023-04-16T18:55:26.147Z,17.67
2023-04-16T18:57:55.253Z,18.75
2023-04-16T19:00:23.100Z,18.27
2023-04-16T19:02:50.430Z,17.58
2023-04-16T19:05:18.710Z,17.48
2023-04-16T19:07:46.106Z,18.27
2023-04-16T19:10:13.157Z,17.95
2023-04-16T19:12:41.483Z,17.20
2023-04-16T19:15:09.040Z,18.48
2023-04-16T19:17:36.388Z,19.15
2023-04-16T19:20:08.222Z,18.30
2023-04-16T19:22:36.182Z,18.73
2023-04-16T19:25:05.584Z,17.38
2023-04-16T19:27:33.848Z,18.85
2023-04-16T19:30:00.947Z,18.55
2023-04-16T19:32:27.885Z,19.03
2023-04-16T19:34:55.066Z,19.77
2023-04-16T19:37:22.125Z,19.35
2023-04-16T19:39:52.036Z,18.83
2023-04-16T19:42:21.754Z,18.45
2023-04-16T19:44:48.684Z,18.80
2023-04-16T19:47:15.881Z,19.80
2023-04-16T19:49:43.915Z,18.23
2023-04-16T19:52:11.044Z,18.60
2023-04-16T19:54:38.231Z,19.83
2023-04-16T19:57:05.231Z,19.17
2023-04-16T19:59:33.815Z,19.95
2023-04-16T20:02:01.312Z,19.40
2023-04-16T20:04:28.858Z,19.40
2023-04-16T20:06:55.840Z,20.15
2023-04-16T20:09:23.393Z,14.23
2023-04-16T20:11:50.369Z,18.10
2023-04-16T20:14:17.580Z,19.23
2023-04-16T20:16:44.537Z,20.23
2023-04-16T20:19:18.798Z,20.85
2023-04-16T20:21:46.148Z,22.10
2023-04-16T20:24:13.160Z,19.27
2023-04-16T20:26:40.639Z,19.83
2023-04-16T20:29:07.749Z,21.83
2023-04-16T20:31:36.077Z,22.45
2023-04-16T20:34:03.890Z,22.30
2023-04-16T20:36:31.857Z,20.88
2023-04-16T20:39:00.153Z,18.75
2023-04-16T20:41:27.489Z,22.63
2023-04-16T20:43:54.531Z,21.63
2023-04-16T20:46:30.247Z,22.27
2023-04-16T20:48:57.266Z,22.73
2023-04-16T20:51:24.716Z,22.63
2023-04-16T20:53:52.817Z,24.10
2023-04-16T20:56:20.587Z,24.27
2023-04-16T20:58:47.615Z,22.53
2023-04-16T21:01:14.645Z,23.70
2023-04-16T21:03:41.883Z,21.58
2023-04-16T21:06:09.005Z,24.17
2023-04-16T21:08:36.816Z,25.73
2023-04-16T21:11:07.458Z,24.27
2023-04-16T21:13:37.390Z,21.45
2023-04-16T21:16:05.464Z,23.60
2023-04-16T21:18:32.473Z,20.30
2023-04-16T21:20:59.350Z,24.60
2023-04-16T21:23:26.478Z,23.60
2023-04-16T21:25:56.329Z,24.80
2023-04-16T21:28:23.530Z,22.67
2023-04-16T21:30:54.064Z,22.85
2023-04-16T21:33:21.285Z,23.20
2023-04-16T21:35:52.777Z,23.73
2023-04-16T21:38:20.772Z,25.70
2023-04-16T21:40:54.028Z,24.90
2023-04-16T21:43:21.967Z,24.38
2023-04-16T21:45:49.011Z,23.20
2023-04-16T21:48:16.068Z,23.87
2023-04-16T21:50:43.622Z,24.45
2023-04-16T21:53:10.729Z,23.25
2023-04-16T21:55:40.636Z,23.85
2023-04-16T21:58:07.542Z,22.88
2023-04-16T22:00:34.409Z,21.60
2023-04-16T22:03:01.527Z,24.63
2023-04-16T22:05:29.237Z,22.92
2023-04-16T22:07:56.274Z,23.67
2023-04-16T22:10:23.030Z,23.65
2023-04-16T22:12:54.746Z,23.23
2023-04-16T22:15:21.613Z,22.42
2023-04-16T22:17:49.040Z,22.88
2023-04-16T22:20:16.544Z,24.75
2023-04-16T22:22:44.293Z,24.25
2023-04-16T22:25:11.870Z,23.27
2023-04-16T22:27:39.010Z,23.33
2023-04-16T22:30:08.368Z,24.92
2023-04-16T22:32:38.180Z,21.73
2023-04-16T22:35:09.006Z,23.50
2023-04-16T22:37:35.810Z,22.90
2023-04-16T22:40:02.837Z,23.05
2023-04-16T22:42:29.724Z,23.35
2023-04-16T22:44:56.573Z,25.17
2023-04-16T22:47:23.582Z,23.17
2023-04-16T22:49:50.740Z,24.53
2023-04-16T22:52:17.634Z,22.52
2023-04-16T22:54:44.491Z,20.73
2023-04-16T22:57:11.448Z,22.95
2023-04-16T22:59:38.640Z,21.55
2023-04-16T23:02:05.953Z,20.83
2023-04-16T23:04:33.376Z,21.73
2023-04-16T23:07:00.440Z,21.42
2023-04-16T23:09:27.340Z,21.67
2023-04-16T23:11:54.292Z,21.48
2023-04-16T23:14:21.328Z,21.37
2023-04-16T23:16:48.259Z,21.02
2023-04-16T23:19:15.865Z,21.17
2023-04-16T23:21:43.670Z,21.33
2023-04-16T23:24:10.725Z,23.33
2023-04-16T23:26:38.950Z,22.23
2023-04-16T23:29:06.754Z,23.38
2023-04-16T23:31:33.820Z,23.88
2023-04-16T23:34:00.833Z,23.42
2023-04-16T23:36:27.993Z,24.15
2023-04-16T23:38:54.981Z,24.73
2023-04-16T23:41:23.698Z,22.92
2023-04-16T23:43:50.685Z,20.75
2023-04-16T23:46:18.151Z,23.40
2023-04-16T23:48:45.262Z,21.73
2023-04-16T23:51:12.178Z,23.50
2023-04-16T23:53:40.746Z,22.17
2023-04-16T23:56:10.986Z,21.15
2023-04-16T23:58:37.947Z,22.77
